createdAt,value
2018-10-01T00:00:34.833Z,0.00
2018-10-01T00:01:34.813Z,0.00
2018-10-01T00:02:34.898Z,0.00
2018-10-01T00:03:34.947Z,0.00
2018-10-01T00:04:34.780Z,0.00
2018-10-01T00:05:34.773Z,0.00
2018-10-01T00:06:34.777Z,0.00
2018-10-01T00:07:34.755Z,0.00
2018-10-01T00:08:34.735Z,0.00
2018-10-01T00:09:34.755Z,0.00
2018-10-01T00:10:34.737Z,0.00
2018-10-01T00:11:34.702Z,0.00
2018-10-01T00:12:34.692Z,0.00
2018-10-01T00:13:34.690Z,0.00
2018-10-01T00:14:34.696Z,0.00
2018-10-01T00:15:34.656Z,0.00
2018-10-01T00:16:34.666Z,0.00
2018-10-01T00:17:34.639Z,0.00
2018-10-01T00:18:34.633Z,0.00
2018-10-01T00:19:34.650Z,0.00
2018-10-01T00:20:34.607Z,0.00
2018-10-01T00:21:34.609Z,0.00
2018-10-01T00:22:34.596Z,0.00
2018-10-01T00:23:34.572Z,0.00
2018-10-01T00:24:34.605Z,0.00
2018-10-01T00:25:34.551Z,0.00
2018-10-01T00:26:34.547Z,0.00
2018-10-01T00:27:34.546Z,0.00
2018-10-01T00:28:34.527Z,0.00
2018-10-01T00:29:34.516Z,0.00
2018-10-01T00:30:34.530Z,0.00
2018-10-01T00:31:34.490Z,0.00
2018-10-01T00:32:34.483Z,0.00
2018-10-01T00:33:34.480Z,0.00
2018-10-01T00:34:34.460Z,0.00
2018-10-01T00:35:34.475Z,0.00
2018-10-01T00:36:34.445Z,0.00
2018-10-01T00:37:34.426Z,0.00
2018-10-01T00:38:34.483Z,0.00
2018-10-01T00:39:34.399Z,0.00
2018-10-01T00:40:34.433Z,0.00
2018-10-01T00:41:34.398Z,0.00
2018-10-01T00:42:34.391Z,0.00
2018-10-01T00:43:34.368Z,0.00
2018-10-01T00:44:34.361Z,0.00
2018-10-01T00:45:34.391Z,0.00
2018-10-01T00:46:34.327Z,0.00
2018-10-01T00:47:34.332Z,0.00
2018-10-01T00:48:34.307Z,0.00
2018-10-01T00:49:34.296Z,0.00
2018-10-01T00:50:34.320Z,0.00
2018-10-01T00:51:34.272Z,0.00
2018-10-01T00:52:34.268Z,0.00
2018-10-01T00:53:34.255Z,0.00
2018-10-01T00:54:34.260Z,0.00
2018-10-01T00:55:34.267Z,0.00
2018-10-01T00:56:34.246Z,0.00
2018-10-01T00:57:34.224Z,0.00
2018-10-01T00:58:34.202Z,0.00
2018-10-01T00:59:34.187Z,0.00
2018-10-01T01:00:34.180Z,0.00
2018-10-01T01:01:34.190Z,0.00
2018-10-01T01:02:34.159Z,0.00
2018-10-01T01:03:34.143Z,0.00
2018-10-01T01:04:34.158Z,0.00
2018-10-01T01:05:34.140Z,0.00
2018-10-01T01:06:34.146Z,0.00
2018-10-01T01:07:34.123Z,0.00
2018-10-01T01:08:34.089Z,0.00
2018-10-01T01:09:34.085Z,0.00
2018-10-01T01:10:34.068Z,0.00
2018-10-01T01:11:34.083Z,0.00
2018-10-01T01:12:34.091Z,0.00
2018-10-01T01:13:34.042Z,0.00
2018-10-01T01:14:34.037Z,0.00
2018-10-01T01:15:34.018Z,0.00
2018-10-01T01:16:34.005Z,0.00
2018-10-01T01:17:34.016Z,0.00
2018-10-01T01:18:33.991Z,0.00
2018-10-01T01:19:33.984Z,0.00
2018-10-01T01:20:33.968Z,0.00
2018-10-01T01:21:33.954Z,0.00
2018-10-01T01:22:33.986Z,0.00
2018-10-01T01:23:33.932Z,0.00
2018-10-01T01:24:33.947Z,0.00
2018-10-01T01:25:33.926Z,0.00
2018-10-01T01:26:33.945Z,0.00
2018-10-01T01:27:33.896Z,0.00
2018-10-01T01:28:33.880Z,0.00
2018-10-01T01:29:33.870Z,0.00
2018-10-01T01:30:33.853Z,0.00
2018-10-01T01:31:33.843Z,0.00
2018-10-01T01:32:33.864Z,0.00
2018-10-01T01:33:33.846Z,0.00
2018-10-01T01:34:33.821Z,0.00
2018-10-01T01:35:33.804Z,0.00
2018-10-01T01:36:33.797Z,0.00
2018-10-01T01:37:33.805Z,0.00
2018-10-01T01:38:33.771Z,0.00
2018-10-01T01:39:33.761Z,0.00
2018-10-01T01:40:33.754Z,0.00
2018-10-01T01:41:33.747Z,0.00
2018-10-01T01:42:33.757Z,0.00
2018-10-01T01:43:33.717Z,0.00
2018-10-01T01:44:33.707Z,0.00
2018-10-01T01:45:33.697Z,0.00
2018-10-01T01:46:33.681Z,0.00
2018-10-01T01:47:33.695Z,0.00
2018-10-01T01:48:33.665Z,0.00
2018-10-01T01:49:33.670Z,0.00
2018-10-01T01:50:33.641Z,0.00
2018-10-01T01:51:33.633Z,0.00
2018-10-01T01:52:33.654Z,0.00
2018-10-01T01:53:33.609Z,0.00
2018-10-01T01:54:33.597Z,0.00
2018-10-01T01:55:33.594Z,0.00
2018-10-01T01:56:33.596Z,0.00
2018-10-01T01:57:33.604Z,0.00
2018-10-01T01:58:33.568Z,0.00
2018-10-01T01:59:33.546Z,0.00
2018-10-01T02:00:33.535Z,0.00
2018-10-01T02:01:33.540Z,0.00
2018-10-01T02:02:33.547Z,0.00
2018-10-01T02:03:33.506Z,0.00
2018-10-01T02:04:33.498Z,0.00
2018-10-01T02:05:33.487Z,0.00
2018-10-01T02:06:33.484Z,0.00
2018-10-01T02:07:33.470Z,0.00
2018-10-01T02:08:33.476Z,0.00
2018-10-01T02:09:33.455Z,0.00
2018-10-01T02:10:33.425Z,0.00
2018-10-01T02:11:33.431Z,0.00
2018-10-01T02:12:33.410Z,0.00
2018-10-01T02:13:33.438Z,0.00
2018-10-01T02:14:33.404Z,0.00
2018-10-01T02:15:33.376Z,0.00
2018-10-01T02:16:33.367Z,0.00
2018-10-01T02:17:33.358Z,0.00
2018-10-01T02:18:33.379Z,0.00
2018-10-01T02:19:33.333Z,0.00
2018-10-01T02:20:33.338Z,0.00
2018-10-01T02:21:33.322Z,0.00
2018-10-01T02:22:33.306Z,0.00
2018-10-01T02:23:33.287Z,0.00
2018-10-01T02:24:33.311Z,0.00
2018-10-01T02:25:33.266Z,0.00
2018-10-01T02:26:33.256Z,0.00
2018-10-01T02:27:33.248Z,0.00
2018-10-01T02:28:33.249Z,0.00
2018-10-01T02:29:33.269Z,0.00
2018-10-01T02:30:33.213Z,0.00
2018-10-01T02:31:33.203Z,0.00
2018-10-01T02:32:33.201Z,0.00
2018-10-01T02:33:33.181Z,0.00
2018-10-01T02:34:33.213Z,0.00
2018-10-01T02:35:33.182Z,0.00
2018-10-01T02:36:33.170Z,0.00
2018-10-01T02:37:33.140Z,0.00
2018-10-01T02:38:33.168Z,0.00
2018-10-01T02:39:33.147Z,0.00
2018-10-01T02:40:33.131Z,0.00
2018-10-01T02:41:33.105Z,0.00
2018-10-01T02:42:33.090Z,0.00
2018-10-01T02:43:33.077Z,0.00
2018-10-01T02:44:33.066Z,0.00
2018-10-01T02:45:33.077Z,0.00
2018-10-01T02:46:33.042Z,0.00
2018-10-01T02:47:33.050Z,0.00
2018-10-01T02:48:33.048Z,0.00
2018-10-01T02:49:33.012Z,0.00
2018-10-01T02:50:33.039Z,0.00
2018-10-01T02:51:32.999Z,0.00
2018-10-01T02:52:32.976Z,0.00
2018-10-01T02:53:32.968Z,0.00
2018-10-01T02:54:32.971Z,0.00
2018-10-01T02:55:32.984Z,0.00
2018-10-01T02:56:32.936Z,0.00
2018-10-01T02:57:32.953Z,0.00
2018-10-01T02:58:32.918Z,0.00
2018-10-01T02:59:32.902Z,0.00
2018-10-01T03:00:32.900Z,0.00
2018-10-01T03:01:32.914Z,0.00
2018-10-01T03:02:32.886Z,0.00
2018-10-01T03:03:32.869Z,0.00
2018-10-01T03:04:32.850Z,0.00
2018-10-01T03:05:32.838Z,0.00
2018-10-01T03:06:32.866Z,0.00
2018-10-01T03:07:32.820Z,0.00
2018-10-01T03:08:32.810Z,0.00
2018-10-01T03:09:32.802Z,0.00
2018-10-01T03:10:32.791Z,0.00
2018-10-01T03:11:32.807Z,0.00
2018-10-01T03:12:32.778Z,0.00
2018-10-01T03:13:32.765Z,0.00
2018-10-01T03:14:32.747Z,0.00
2018-10-01T03:15:32.785Z,0.00
2018-10-01T03:16:32.724Z,0.00
2018-10-01T03:17:32.734Z,0.00
2018-10-01T03:18:32.729Z,0.00
2018-10-01T03:19:32.706Z,0.00
2018-10-01T03:20:32.687Z,0.00
2018-10-01T03:21:32.690Z,0.00
2018-10-01T03:22:32.695Z,0.00
2018-10-01T03:23:32.669Z,0.00
2018-10-01T03:24:32.640Z,0.00
2018-10-01T03:25:32.638Z,0.00
2018-10-01T03:26:32.624Z,0.00
2018-10-01T03:27:32.642Z,0.00
2018-10-01T03:28:32.599Z,0.00
2018-10-01T03:29:32.591Z,0.00
2018-10-01T03:30:32.595Z,0.00
2018-10-01T03:31:32.566Z,0.00
2018-10-01T03:32:32.570Z,0.00
2018-10-01T03:33:32.572Z,0.00
2018-10-01T03:34:32.543Z,0.00
2018-10-01T03:35:32.534Z,0.00
2018-10-01T03:36:32.527Z,0.00
2018-10-01T03:37:32.516Z,0.00
2018-10-01T03:38:32.533Z,0.00
2018-10-01T03:39:32.475Z,0.00
2018-10-01T03:40:32.519Z,0.00
2018-10-01T03:41:32.461Z,0.00
2018-10-01T03:42:32.457Z,0.00
2018-10-01T03:43:32.469Z,0.00
2018-10-01T03:44:32.436Z,0.00
2018-10-01T03:45:32.412Z,0.00
2018-10-01T03:46:32.412Z,0.00
2018-10-01T03:47:32.404Z,0.00
2018-10-01T03:48:32.421Z,0.00
2018-10-01T03:49:32.375Z,0.00
2018-10-01T03:50:32.378Z,0.00
2018-10-01T03:51:32.361Z,0.00
2018-10-01T03:52:32.349Z,0.00
2018-10-01T03:53:32.348Z,0.00
2018-10-01T03:54:32.345Z,0.00
2018-10-01T03:55:32.305Z,0.00
2018-10-01T03:56:32.296Z,0.00
2018-10-01T03:57:32.297Z,0.00
2018-10-01T03:58:32.288Z,0.00
2018-10-01T03:59:32.290Z,0.00
2018-10-01T04:00:32.253Z,0.00
2018-10-01T04:01:32.246Z,0.00
2018-10-01T04:02:32.238Z,0.00
2018-10-01T04:03:32.224Z,0.00
2018-10-01T04:04:32.237Z,0.00
2018-10-01T04:05:32.193Z,0.00
2018-10-01T04:06:32.186Z,0.00
2018-10-01T04:07:32.187Z,0.00
2018-10-01T04:08:32.187Z,0.00
2018-10-01T04:09:32.191Z,0.00
2018-10-01T04:10:32.183Z,0.00
2018-10-01T04:11:32.145Z,0.00
2018-10-01T04:12:32.144Z,0.00
2018-10-01T04:13:32.117Z,0.00
2018-10-01T04:14:32.107Z,0.00
2018-10-01T04:15:32.120Z,0.00
2018-10-01T04:16:32.100Z,0.00
2018-10-01T04:17:32.078Z,0.00
2018-10-01T04:18:32.070Z,0.00
2018-10-01T04:19:32.089Z,0.00
2018-10-01T04:20:32.070Z,0.00
2018-10-01T04:21:32.034Z,0.00
2018-10-01T04:22:32.068Z,0.00
2018-10-01T04:23:32.009Z,0.00
2018-10-01T04:24:31.991Z,0.00
2018-10-01T04:25:32.012Z,0.00
2018-10-01T04:26:31.977Z,0.00
2018-10-01T04:27:31.992Z,0.00
2018-10-01T04:28:31.968Z,0.00
2018-10-01T04:29:31.960Z,0.00
2018-10-01T04:30:31.966Z,0.00
2018-10-01T04:31:31.933Z,0.00
2018-10-01T04:32:31.925Z,0.00
2018-10-01T04:33:31.927Z,0.00
2018-10-01T04:34:31.898Z,0.00
2018-10-01T04:35:31.896Z,0.00
2018-10-01T04:36:31.887Z,0.00
2018-10-01T04:37:31.882Z,0.00
2018-10-01T04:38:31.853Z,0.00
2018-10-01T04:39:31.857Z,0.00
2018-10-01T04:40:31.840Z,0.00
2018-10-01T04:41:31.839Z,0.00
2018-10-01T04:42:31.797Z,0.00
2018-10-01T04:43:31.792Z,0.00
2018-10-01T04:44:31.806Z,0.00
2018-10-01T04:45:31.778Z,0.00
2018-10-01T04:46:31.807Z,0.00
2018-10-01T04:47:31.763Z,0.00
2018-10-01T04:48:31.766Z,0.00
2018-10-01T04:49:31.729Z,0.00
2018-10-01T04:50:31.764Z,0.00
2018-10-01T04:51:31.741Z,0.00
2018-10-01T04:52:31.696Z,0.00
2018-10-01T04:53:31.689Z,0.00
2018-10-01T04:54:31.686Z,0.00
2018-10-01T04:55:31.661Z,0.00
2018-10-01T04:56:31.673Z,0.00
2018-10-01T04:57:31.673Z,0.00
2018-10-01T04:58:31.746Z,0.00
2018-10-01T04:59:31.626Z,0.00
2018-10-01T05:00:31.616Z,0.00
2018-10-01T05:01:31.600Z,4.00
2018-10-01T05:02:31.621Z,4.00
2018-10-01T05:03:31.614Z,4.00
2018-10-01T05:04:31.570Z,4.00
2018-10-01T05:05:31.573Z,0.00
2018-10-01T05:06:31.553Z,0.00
2018-10-01T05:07:31.589Z,4.00
2018-10-01T05:08:31.548Z,4.00
2018-10-01T05:09:31.573Z,4.00
2018-10-01T05:10:31.500Z,4.00
2018-10-01T05:11:31.509Z,8.00
2018-10-01T05:12:31.504Z,12.00
2018-10-01T05:13:31.499Z,8.00
2018-10-01T05:14:31.466Z,12.00
2018-10-01T05:15:31.459Z,12.00
2018-10-01T05:16:31.435Z,12.00
2018-10-01T05:17:31.469Z,12.00
2018-10-01T05:18:31.442Z,12.00
2018-10-01T05:19:31.420Z,12.00
2018-10-01T05:20:31.412Z,12.00
2018-10-01T05:21:31.379Z,12.00
2018-10-01T05:22:31.387Z,12.00
2018-10-01T05:23:31.392Z,12.00
2018-10-01T05:24:31.358Z,12.00
2018-10-01T05:25:31.342Z,12.00
2018-10-01T05:26:31.355Z,12.00
2018-10-01T05:27:31.323Z,20.00
2018-10-01T05:28:31.384Z,28.00
2018-10-01T05:29:31.321Z,28.00
2018-10-01T05:30:31.293Z,32.00
2018-10-01T05:31:31.283Z,40.00
2018-10-01T05:32:31.293Z,48.00
2018-10-01T05:33:31.293Z,56.00
2018-10-01T05:34:31.248Z,60.00
2018-10-01T05:35:31.306Z,68.00
2018-10-01T05:36:31.223Z,72.00
2018-10-01T05:37:31.219Z,76.00
2018-10-01T05:38:31.232Z,80.00
2018-10-01T05:39:31.212Z,84.00
2018-10-01T05:40:31.183Z,88.00
2018-10-01T05:41:31.190Z,88.00
2018-10-01T05:42:31.173Z,88.00
2018-10-01T05:43:31.156Z,84.00
2018-10-01T05:44:31.159Z,76.00
2018-10-01T05:45:31.123Z,72.00
2018-10-01T05:46:31.122Z,68.00
2018-10-01T05:47:31.109Z,64.00
2018-10-01T05:48:31.106Z,64.00
2018-10-01T05:49:31.134Z,60.00
2018-10-01T05:50:31.072Z,60.00
2018-10-01T05:51:31.082Z,64.00
2018-10-01T05:52:31.136Z,64.00
2018-10-01T05:53:31.060Z,60.00
2018-10-01T05:54:31.081Z,56.00
2018-10-01T05:55:31.048Z,56.00
2018-10-01T05:56:31.004Z,60.00
2018-10-01T05:57:31.020Z,72.00
2018-10-01T05:58:30.989Z,84.00
2018-10-01T05:59:30.991Z,96.00
2018-10-01T06:00:31.009Z,108.00
2018-10-01T06:01:30.977Z,124.00
2018-10-01T06:02:30.950Z,144.00
2018-10-01T06:03:30.938Z,160.00
2018-10-01T06:04:30.956Z,168.00
2018-10-01T06:05:30.960Z,164.00
2018-10-01T06:06:30.904Z,168.00
2018-10-01T06:07:30.901Z,172.00
2018-10-01T06:08:30.898Z,184.00
2018-10-01T06:09:30.874Z,196.00
2018-10-01T06:10:30.872Z,204.00
2018-10-01T06:11:30.881Z,204.00
2018-10-01T06:12:30.844Z,212.00
2018-10-01T06:13:30.848Z,212.00
2018-10-01T06:14:30.847Z,216.00
2018-10-01T06:15:30.808Z,212.00
2018-10-01T06:16:30.817Z,196.00
2018-10-01T06:17:30.788Z,196.00
2018-10-01T06:18:30.821Z,192.00
2018-10-01T06:19:30.771Z,128.00
2018-10-01T06:20:30.750Z,192.00
2018-10-01T06:21:30.793Z,188.00
2018-10-01T06:22:30.727Z,184.00
2018-10-01T06:23:30.743Z,180.00
2018-10-01T06:24:30.712Z,184.00
2018-10-01T06:25:30.721Z,184.00
2018-10-01T06:26:30.692Z,188.00
2018-10-01T06:27:30.708Z,192.00
2018-10-01T06:28:30.681Z,200.00
2018-10-01T06:29:30.681Z,208.00
2018-10-01T06:30:30.671Z,224.00
2018-10-01T06:31:30.648Z,236.00
2018-10-01T06:32:30.659Z,248.00
2018-10-01T06:33:30.630Z,260.00
2018-10-01T06:34:30.598Z,264.00
2018-10-01T06:35:30.593Z,272.00
2018-10-01T06:36:30.589Z,272.00
2018-10-01T06:37:30.621Z,268.00
2018-10-01T06:38:30.568Z,264.00
2018-10-01T06:39:30.643Z,260.00
2018-10-01T06:40:30.533Z,252.00
2018-10-01T06:41:30.588Z,252.00
2018-10-01T06:42:30.524Z,256.00
2018-10-01T06:43:30.544Z,268.00
2018-10-01T06:44:30.505Z,280.00
2018-10-01T06:45:30.479Z,296.00
2018-10-01T06:46:30.475Z,316.00
2018-10-01T06:47:31.233Z,336.00
2018-10-01T06:48:30.762Z,360.00
2018-10-01T06:49:30.444Z,372.00
2018-10-01T06:50:30.439Z,388.00
2018-10-01T06:51:30.460Z,400.00
2018-10-01T06:52:30.414Z,416.00
2018-10-01T06:53:30.429Z,440.00
2018-10-01T06:54:30.390Z,460.00
2018-10-01T06:55:30.379Z,476.00
2018-10-01T06:56:30.361Z,484.00
2018-10-01T06:57:30.371Z,488.00
2018-10-01T06:58:30.396Z,484.00
2018-10-01T06:59:30.364Z,476.00
2018-10-01T07:00:30.324Z,476.00
2018-10-01T07:01:30.333Z,480.00
2018-10-01T07:02:30.350Z,484.00
2018-10-01T07:03:30.295Z,496.00
2018-10-01T07:04:30.301Z,508.00
2018-10-01T07:05:30.332Z,532.00
2018-10-01T07:06:30.288Z,552.00
2018-10-01T07:07:30.277Z,576.00
2018-10-01T07:08:30.302Z,608.00
2018-10-01T07:09:30.257Z,644.00
2018-10-01T07:10:30.228Z,688.00
2018-10-01T07:11:30.314Z,728.00
2018-10-01T07:12:30.197Z,764.00
2018-10-01T07:13:30.203Z,796.00
2018-10-01T07:14:30.197Z,828.00
2018-10-01T07:15:30.163Z,852.00
2018-10-01T07:16:30.185Z,872.00
2018-10-01T07:17:30.363Z,888.00
2018-10-01T07:18:30.136Z,912.00
2018-10-01T07:19:30.169Z,940.00
2018-10-01T07:20:30.105Z,972.00
2018-10-01T07:21:30.098Z,1008.00
2018-10-01T07:22:30.126Z,1040.00
2018-10-01T07:23:30.079Z,1084.00
2018-10-01T07:24:30.061Z,1116.00
2018-10-01T07:25:30.092Z,1136.00
2018-10-01T07:26:30.051Z,1152.00
2018-10-01T07:27:30.030Z,1152.00
2018-10-01T07:28:30.019Z,1144.00
2018-10-01T07:29:30.010Z,1136.00
2018-10-01T07:30:30.019Z,1124.00
2018-10-01T07:31:29.995Z,1108.00
2018-10-01T07:32:29.984Z,1092.00
2018-10-01T07:33:29.966Z,1080.00
2018-10-01T07:34:29.957Z,1072.00
2018-10-01T07:35:29.971Z,1068.00
2018-10-01T07:36:29.935Z,1072.00
2018-10-01T07:37:29.935Z,1080.00
2018-10-01T07:38:29.935Z,1088.00
2018-10-01T07:39:29.906Z,1092.00
2018-10-01T07:40:29.928Z,1096.00
2018-10-01T07:41:29.890Z,1088.00
2018-10-01T07:42:29.883Z,1076.00
2018-10-01T07:43:29.865Z,1080.00
2018-10-01T07:44:29.849Z,1104.00
2018-10-01T07:45:29.850Z,1132.00
2018-10-01T07:46:29.857Z,1152.00
2018-10-01T07:47:29.824Z,1168.00
2018-10-01T07:48:29.807Z,1180.00
2018-10-01T07:49:29.815Z,1200.00
2018-10-01T07:50:29.862Z,1208.00
2018-10-01T07:51:29.798Z,1212.00
2018-10-01T07:52:29.763Z,1200.00
2018-10-01T07:53:29.824Z,1184.00
2018-10-01T07:54:29.744Z,1176.00
2018-10-01T07:55:29.735Z,1164.00
2018-10-01T07:56:29.745Z,1164.00
2018-10-01T07:57:29.768Z,1172.00
2018-10-01T07:58:29.698Z,1196.00
2018-10-01T07:59:29.718Z,1236.00
2018-10-01T08:00:29.830Z,1292.00
2018-10-01T08:01:29.723Z,1356.00
2018-10-01T08:02:29.668Z,1404.00
2018-10-01T08:03:29.654Z,1436.00
2018-10-01T08:04:29.634Z,1460.00
2018-10-01T08:05:29.654Z,1484.00
2018-10-01T08:06:29.617Z,1520.00
2018-10-01T08:07:29.612Z,1556.00
2018-10-01T08:08:29.642Z,1584.00
2018-10-01T08:09:29.692Z,1608.00
2018-10-01T08:10:29.631Z,1636.00
2018-10-01T08:11:29.576Z,1652.00
2018-10-01T08:12:29.549Z,1656.00
2018-10-01T08:13:29.542Z,1656.00
2018-10-01T08:14:29.622Z,1660.00
2018-10-01T08:15:29.555Z,1644.00
2018-10-01T08:16:29.504Z,1600.00
2018-10-01T08:17:29.502Z,1536.00
2018-10-01T08:18:29.496Z,1452.00
2018-10-01T08:19:29.478Z,1384.00
2018-10-01T08:20:29.530Z,1320.00
2018-10-01T08:21:29.493Z,1268.00
2018-10-01T08:22:29.464Z,1236.00
2018-10-01T08:23:29.439Z,1268.00
2018-10-01T08:24:29.419Z,1304.00
2018-10-01T08:25:29.412Z,1372.00
2018-10-01T08:26:29.423Z,1444.00
2018-10-01T08:27:29.416Z,1504.00
2018-10-01T08:28:29.381Z,1544.00
2018-10-01T08:29:29.428Z,1564.00
2018-10-01T08:30:29.356Z,1564.00
2018-10-01T08:31:29.357Z,1556.00
2018-10-01T08:32:29.426Z,1548.00
2018-10-01T08:33:29.370Z,1540.00
2018-10-01T08:34:29.319Z,1524.00
2018-10-01T08:35:29.337Z,1504.00
2018-10-01T08:36:29.296Z,1476.00
2018-10-01T08:37:29.335Z,1464.00
2018-10-01T08:38:29.339Z,1472.00
2018-10-01T08:39:29.280Z,1508.00
2018-10-01T08:40:29.261Z,1564.00
2018-10-01T08:41:29.335Z,1640.00
2018-10-01T08:42:29.275Z,1704.00
2018-10-01T08:43:29.218Z,1760.00
2018-10-01T08:44:29.296Z,1800.00
2018-10-01T08:45:29.246Z,1812.00
2018-10-01T08:46:29.202Z,1816.00
2018-10-01T08:47:29.271Z,1804.00
2018-10-01T08:48:29.169Z,1796.00
2018-10-01T08:49:29.192Z,1788.00
2018-10-01T08:50:29.239Z,1796.00
2018-10-01T08:51:29.139Z,1800.00
2018-10-01T08:52:29.210Z,1804.00
2018-10-01T08:53:29.202Z,1812.00
2018-10-01T08:54:29.156Z,1820.00
2018-10-01T08:55:29.088Z,1836.00
2018-10-01T08:56:29.166Z,1848.00
2018-10-01T08:57:29.099Z,1864.00
2018-10-01T08:58:29.059Z,1796.00
2018-10-01T08:59:29.109Z,1772.00
2018-10-01T09:00:29.067Z,1764.00
2018-10-01T09:01:29.028Z,1736.00
2018-10-01T09:02:29.047Z,1732.00
2018-10-01T09:03:29.054Z,1812.00
2018-10-01T09:04:28.990Z,2012.00
2018-10-01T09:05:29.081Z,2164.00
2018-10-01T09:06:29.023Z,2272.00
2018-10-01T09:07:28.966Z,2384.00
2018-10-01T09:08:28.999Z,2512.00
2018-10-01T09:09:28.962Z,2660.00
2018-10-01T09:10:28.944Z,2808.00
2018-10-01T09:11:28.977Z,2944.00
2018-10-01T09:12:28.933Z,3016.00
2018-10-01T09:13:28.913Z,3020.00
2018-10-01T09:14:28.896Z,2968.00
2018-10-01T09:15:28.903Z,2876.00
2018-10-01T09:16:28.879Z,2716.00
2018-10-01T09:17:28.953Z,2504.00
2018-10-01T09:18:28.862Z,2292.00
2018-10-01T09:19:28.846Z,2104.00
2018-10-01T09:20:28.836Z,1952.00
2018-10-01T09:21:28.929Z,1820.00
2018-10-01T09:22:28.835Z,1768.00
2018-10-01T09:23:28.848Z,1756.00
2018-10-01T09:24:28.817Z,1788.00
2018-10-01T09:25:28.782Z,1836.00
2018-10-01T09:26:28.835Z,1884.00
2018-10-01T09:27:28.748Z,1908.00
2018-10-01T09:28:28.826Z,1920.00
2018-10-01T09:29:28.790Z,1952.00
2018-10-01T09:30:28.750Z,1996.00
2018-10-01T09:31:28.725Z,2008.00
2018-10-01T09:32:28.760Z,1992.00
2018-10-01T09:33:28.723Z,2000.00
2018-10-01T09:34:28.684Z,2108.00
2018-10-01T09:35:28.669Z,2320.00
2018-10-01T09:36:28.661Z,2556.00
2018-10-01T09:37:28.648Z,2732.00
2018-10-01T09:38:28.730Z,2720.00
2018-10-01T09:39:28.636Z,2660.00
2018-10-01T09:40:28.647Z,2720.00
2018-10-01T09:41:28.609Z,2824.00
2018-10-01T09:42:28.631Z,2856.00
2018-10-01T09:43:28.648Z,2868.00
2018-10-01T09:44:28.635Z,2936.00
2018-10-01T09:45:28.639Z,3076.00
2018-10-01T09:46:28.605Z,3212.00
2018-10-01T09:47:28.551Z,3296.00
2018-10-01T09:48:28.543Z,3252.00
2018-10-01T09:49:28.532Z,3172.00
2018-10-01T09:50:28.570Z,3068.00
2018-10-01T09:51:28.497Z,3060.00
2018-10-01T09:52:28.553Z,3256.00
2018-10-01T09:53:28.473Z,3532.00
2018-10-01T09:54:28.491Z,3776.00
2018-10-01T09:55:28.442Z,3896.00
2018-10-01T09:56:28.500Z,3708.00
2018-10-01T09:57:28.433Z,3388.00
2018-10-01T09:58:28.432Z,3260.00
2018-10-01T09:59:28.449Z,3248.00
2018-10-01T10:00:28.396Z,3272.00
2018-10-01T10:01:28.383Z,3436.00
2018-10-01T10:02:28.438Z,3720.00
2018-10-01T10:03:28.361Z,4040.00
2018-10-01T10:04:28.485Z,4296.00
2018-10-01T10:05:28.373Z,4332.00
2018-10-01T10:06:28.344Z,4388.00
2018-10-01T10:07:28.314Z,4544.00
2018-10-01T10:08:28.389Z,4584.00
2018-10-01T10:09:28.300Z,4440.00
2018-10-01T10:10:28.347Z,4480.00
2018-10-01T10:11:28.409Z,4768.00
2018-10-01T10:12:28.262Z,4992.00
2018-10-01T10:13:28.280Z,4952.00
2018-10-01T10:14:28.288Z,5064.00
2018-10-01T10:15:28.231Z,5276.00
2018-10-01T10:16:28.306Z,5248.00
2018-10-01T10:17:28.252Z,5228.00
2018-10-01T10:18:28.211Z,5392.00
2018-10-01T10:19:28.193Z,5716.00
2018-10-01T10:20:28.238Z,5988.00
2018-10-01T10:21:28.216Z,6508.00
2018-10-01T10:22:28.297Z,6948.00
2018-10-01T10:23:28.177Z,6440.00
2018-10-01T10:24:28.141Z,6192.00
2018-10-01T10:25:28.134Z,6532.00
2018-10-01T10:26:28.188Z,6760.00
2018-10-01T10:27:28.114Z,8004.00
2018-10-01T10:28:28.192Z,6964.00
2018-10-01T10:29:28.110Z,5956.00
2018-10-01T10:30:28.069Z,5612.00
2018-10-01T10:31:28.081Z,5472.00
2018-10-01T10:32:28.129Z,5096.00
2018-10-01T10:33:35.300Z,4836.00
2018-10-01T10:34:28.089Z,4796.00
2018-10-01T10:35:28.066Z,4904.00
2018-10-01T10:36:28.008Z,4972.00
2018-10-01T10:37:28.000Z,5100.00
2018-10-01T10:38:28.078Z,5180.00
2018-10-01T10:39:28.020Z,5264.00
2018-10-01T10:40:27.966Z,5352.00
2018-10-01T10:41:27.969Z,5372.00
2018-10-01T10:42:27.980Z,5316.00
2018-10-01T10:43:27.942Z,5192.00
2018-10-01T10:44:27.982Z,5136.00
2018-10-01T10:45:27.932Z,5364.00
2018-10-01T10:46:27.903Z,5392.00
2018-10-01T10:47:27.894Z,5324.00
2018-10-01T10:48:27.896Z,5156.00
2018-10-01T10:49:28.748Z,5296.00
2018-10-01T10:50:27.882Z,5516.00
2018-10-01T10:51:27.865Z,5536.00
2018-10-01T10:52:27.842Z,5340.00
2018-10-01T10:53:27.830Z,5084.00
2018-10-01T10:54:27.874Z,4820.00
2018-10-01T10:55:27.805Z,4716.00
2018-10-01T10:56:27.840Z,4764.00
2018-10-01T10:57:27.793Z,4640.00
2018-10-01T10:58:27.771Z,4472.00
2018-10-01T10:59:27.763Z,4468.00
2018-10-01T11:00:27.769Z,4460.00
2018-10-01T11:01:28.257Z,4628.00
2018-10-01T11:02:27.744Z,5000.00
2018-10-01T11:03:27.727Z,5460.00
2018-10-01T11:04:27.708Z,6044.00
2018-10-01T11:05:27.757Z,6824.00
2018-10-01T11:06:27.687Z,7516.00
2018-10-01T11:07:27.681Z,8496.00
2018-10-01T11:08:27.709Z,10508.00
2018-10-01T11:09:27.671Z,12012.00
2018-10-01T11:10:27.667Z,12920.00
2018-10-01T11:11:27.648Z,10668.00
2018-10-01T11:12:27.640Z,12184.00
2018-10-01T11:13:27.634Z,18752.00
2018-10-01T11:14:27.707Z,26592.00
2018-10-01T11:15:27.658Z,8148.00
2018-10-01T11:16:27.577Z,32544.00
2018-10-01T11:17:27.662Z,24608.00
2018-10-01T11:18:27.634Z,18112.00
2018-10-01T11:19:27.566Z,19616.00
2018-10-01T11:20:27.700Z,17568.00
2018-10-01T11:21:27.764Z,42976.00
2018-10-01T11:22:27.518Z,36096.00
2018-10-01T11:23:27.528Z,24224.00
2018-10-01T11:24:27.502Z,33472.00
2018-10-01T11:25:27.633Z,41216.00
2018-10-01T11:26:27.482Z,28544.00
2018-10-01T11:27:27.572Z,12316.00
2018-10-01T11:28:27.498Z,10512.00
2018-10-01T11:29:27.449Z,8228.00
2018-10-01T11:30:27.440Z,5892.00
2018-10-01T11:31:27.505Z,6012.00
2018-10-01T11:32:27.419Z,9984.00
2018-10-01T11:33:27.490Z,8368.00
2018-10-01T11:34:27.531Z,6664.00
2018-10-01T11:35:27.406Z,5352.00
2018-10-01T11:36:27.370Z,5884.00
2018-10-01T11:37:27.356Z,9984.00
2018-10-01T11:38:27.388Z,6648.00
2018-10-01T11:39:27.371Z,4280.00
2018-10-01T11:40:27.382Z,4716.00
2018-10-01T11:41:27.321Z,6992.00
2018-10-01T11:42:27.322Z,9664.00
2018-10-01T11:43:27.322Z,8404.00
2018-10-01T11:44:27.285Z,7636.00
2018-10-01T11:45:27.332Z,7748.00
2018-10-01T11:46:27.293Z,8344.00
2018-10-01T11:47:27.249Z,8472.00
2018-10-01T11:48:27.263Z,8812.00
2018-10-01T11:49:27.228Z,9628.00
2018-10-01T11:50:27.216Z,10884.00
2018-10-01T11:51:27.206Z,12296.00
2018-10-01T11:52:27.203Z,13060.00
2018-10-01T11:53:27.214Z,14296.00
2018-10-01T11:54:27.241Z,28736.00
2018-10-01T11:55:27.164Z,28640.00
2018-10-01T11:56:27.216Z,14172.00
2018-10-01T11:57:27.220Z,13432.00
2018-10-01T11:58:27.130Z,26624.00
2018-10-01T11:59:27.158Z,21056.00
2018-10-01T12:00:27.110Z,26144.00
2018-10-01T12:01:27.099Z,19680.00
2018-10-01T12:02:27.087Z,24192.00
2018-10-01T12:03:27.119Z,29504.00
2018-10-01T12:04:27.113Z,25344.00
2018-10-01T12:05:27.054Z,26048.00
2018-10-01T12:06:27.043Z,22816.00
2018-10-01T12:07:27.035Z,11068.00
2018-10-01T12:08:27.033Z,21952.00
2018-10-01T12:09:27.069Z,25888.00
2018-10-01T12:10:27.079Z,17664.00
2018-10-01T12:11:26.994Z,26016.00
2018-10-01T12:12:26.981Z,17792.00
2018-10-01T12:13:26.974Z,20864.00
2018-10-01T12:14:26.965Z,12184.00
2018-10-01T12:15:27.051Z,5752.00
2018-10-01T12:16:26.981Z,4412.00
2018-10-01T12:17:26.934Z,4096.00
2018-10-01T12:18:26.924Z,4004.00
2018-10-01T12:19:26.921Z,4252.00
2018-10-01T12:20:26.924Z,4076.00
2018-10-01T12:21:26.886Z,4268.00
2018-10-01T12:22:26.884Z,4528.00
2018-10-01T12:23:26.874Z,5048.00
2018-10-01T12:24:26.857Z,5700.00
2018-10-01T12:25:26.872Z,6844.00
2018-10-01T12:26:26.843Z,9376.00
2018-10-01T12:27:26.963Z,15488.00
2018-10-01T12:28:26.825Z,20224.00
2018-10-01T12:29:26.811Z,23616.00
2018-10-01T12:30:26.825Z,24608.00
2018-10-01T12:31:26.783Z,21440.00
2018-10-01T12:32:26.793Z,9208.00
2018-10-01T12:33:26.775Z,7276.00
2018-10-01T12:34:26.752Z,6692.00
2018-10-01T12:35:26.742Z,6844.00
2018-10-01T12:36:26.756Z,11636.00
2018-10-01T12:37:26.813Z,12376.00